Time;durP1;ratioP1;P1;durP2;ratioP2;P2;SDS_P1;SDS_P2;PMS_P1;PMS_P2;Temp;Humidity;BMP_temperature;BMP_pressure;BME280_temperature;BME280_humidity;BME280_pressure;Samples;Min_cycle;Max_cycle;Signal;HPM_P1;HPM_P2
2022/07/15 00:00:54;;;;;;;4.83;2.30;;;;;;;;;;4990961;28;20701;-57
2022/07/15 00:03:20;;;;;;;2.50;2.20;;;;;;;;;;5010959;28;20574;-54
2022/07/15 00:05:46;;;;;;;3.63;2.30;;;;;;;;;;5029019;28;20186;-55
2022/07/15 00:08:12;;;;;;;2.33;2.13;;;;;;;;;;5010211;28;20171;-56
2022/07/15 00:10:39;;;;;;;3.80;2.47;;;;;;;;;;5010130;28;20177;-54
2022/07/15 00:13:05;;;;;;;2.47;2.17;;;;;;;;;;5011019;28;20282;-56
2022/07/15 00:15:32;;;;;;;4.17;2.53;;;;;;;;;;5019059;28;20180;-55
2022/07/15 00:18:01;;;;;;;3.10;2.33;;;;;;;;;;5012431;28;20569;-55
2022/07/15 00:20:33;;;;;;;2.50;2.13;;;;;;;;;;5017790;28;20590;-55
2022/07/15 00:22:59;;;;;;;3.70;2.90;;;;;;;;;;5029365;28;20180;-55
2022/07/15 00:25:25;;;;;;;3.30;2.53;;;;;;;;;;5027945;28;20191;-55
2022/07/15 00:28:05;;;;;;;3.97;2.30;;;;;;;;;;5009407;28;20649;-56
2022/07/15 00:30:32;;;;;;;3.93;2.77;;;;;;;;;;5010602;28;20944;-55
2022/07/15 00:33:00;;;;;;;2.33;2.13;;;;;;;;;;5029041;28;20304;-56
2022/07/15 00:35:26;;;;;;;2.63;2.40;;;;;;;;;;5029392;28;20184;-55
2022/07/15 00:37:52;;;;;;;4.50;3.20;;;;;;;;;;5036393;28;20188;-56
2022/07/15 00:40:19;;;;;;;2.30;2.20;;;;;;;;;;5048633;28;20163;-56
2022/07/15 00:42:45;;;;;;;2.40;2.10;;;;;;;;;;5029289;28;20828;-54
2022/07/15 00:45:11;;;;;;;2.50;2.30;;;;;;;;;;5029553;28;20181;-55
2022/07/15 00:47:37;;;;;;;3.60;2.37;;;;;;;;;;5014717;28;20193;-54
2022/07/15 00:50:04;;;;;;;2.60;2.40;;;;;;;;;;4996287;28;20185;-55
2022/07/15 00:52:30;;;;;;;3.20;2.57;;;;;;;;;;5014304;28;20217;-54
2022/07/15 00:54:59;;;;;;;3.20;2.30;;;;;;;;;;5016225;28;20566;-54
2022/07/15 00:57:26;;;;;;;3.93;2.40;;;;;;;;;;5011529;28;20189;-54
2022/07/15 00:59:52;;;;;;;2.53;2.33;;;;;;;;;;5028924;28;20193;-54
2022/07/15 01:02:22;;;;;;;3.40;2.27;;;;;;;;;;5028028;28;20293;-54
2022/07/15 01:04:49;;;;;;;2.87;2.40;;;;;;;;;;5028796;28;20658;-54
2022/07/15 01:07:15;;;;;;;2.53;2.13;;;;;;;;;;5028940;28;20178;-55
2022/07/15 01:09:42;;;;;;;5.43;2.33;;;;;;;;;;5029311;28;20165;-55
2022/07/15 01:12:14;;;;;;;2.83;2.40;;;;;;;;;;5027242;28;20258;-54
2022/07/15 01:14:40;;;;;;;3.67;2.27;;;;;;;;;;5010395;28;20174;-54
2022/07/15 01:17:10;;;;;;;2.77;2.10;;;;;;;;;;5006428;28;20271;-54
2022/07/15 01:19:36;;;;;;;4.20;2.73;;;;;;;;;;5012001;28;20203;-57
2022/07/15 01:22:03;;;;;;;3.40;2.40;;;;;;;;;;5027707;28;20192;-56
2022/07/15 01:24:29;;;;;;;3.47;2.30;;;;;;;;;;5029084;28;20657;-55
2022/07/15 01:26:55;;;;;;;2.57;2.33;;;;;;;;;;5026587;28;20186;-55
2022/07/15 01:29:24;;;;;;;4.10;2.60;;;;;;;;;;5012072;28;20234;-55
2022/07/15 01:31:50;;;;;;;2.53;2.33;;;;;;;;;;5009791;28;20296;-54
2022/07/15 01:34:16;;;;;;;4.40;2.73;;;;;;;;;;5028368;28;20177;-54
2022/07/15 01:36:42;;;;;;;2.60;2.40;;;;;;;;;;5005428;28;20184;-55
2022/07/15 01:39:09;;;;;;;2.90;2.60;;;;;;;;;;5028543;28;20164;-56
2022/07/15 01:41:35;;;;;;;2.37;2.23;;;;;;;;;;5027809;28;20600;-55
2022/07/15 01:44:01;;;;;;;2.47;2.10;;;;;;;;;;5028596;28;20595;-55
2022/07/15 01:46:27;;;;;;;2.87;2.60;;;;;;;;;;5027131;28;20650;-56
2022/07/15 01:51:38;;;;;;;3.03;2.83;;;;;;;;;;5025512;28;20216;-55
2022/07/15 01:54:04;;;;;;;3.23;2.50;;;;;;;;;;5027227;28;20175;-56
2022/07/15 01:56:30;;;;;;;4.53;2.63;;;;;;;;;;5026271;28;20633;-55
2022/07/15 01:58:56;;;;;;;4.30;2.77;;;;;;;;;;5028872;28;20162;-55
2022/07/15 02:01:25;;;;;;;2.77;2.17;;;;;;;;;;5026992;28;20174;-55
2022/07/15 02:03:52;;;;;;;2.63;2.43;;;;;;;;;;5037978;28;20278;-56
2022/07/15 02:06:18;;;;;;;5.80;2.77;;;;;;;;;;5010488;28;20921;-54
2022/07/15 02:08:44;;;;;;;3.20;2.50;;;;;;;;;;5027156;28;20571;-57
2022/07/15 02:11:13;;;;;;;4.43;2.77;;;;;;;;;;5026246;28;20206;-57
2022/07/15 02:13:39;;;;;;;3.33;2.20;;;;;;;;;;5027622;28;20189;-54
2022/07/15 02:16:05;;;;;;;3.20;2.43;;;;;;;;;;5028034;28;20181;-56
2022/07/15 02:18:31;;;;;;;2.43;2.23;;;;;;;;;;5027625;28;20692;-55
2022/07/15 02:21:04;;;;;;;5.60;2.97;;;;;;;;;;5007132;28;20209;-54
2022/07/15 02:23:30;;;;;;;2.30;2.20;;;;;;;;;;4991538;28;20546;-55
2022/07/15 02:25:56;;;;;;;2.77;2.30;;;;;;;;;;5027015;28;20624;-54
2022/07/15 02:28:23;;;;;;;2.90;2.60;;;;;;;;;;5027400;28;20226;-55
2022/07/15 02:30:49;;;;;;;3.63;2.80;;;;;;;;;;5026789;28;20182;-55
2022/07/15 02:33:15;;;;;;;2.70;2.20;;;;;;;;;;5025982;28;20310;-56
2022/07/15 02:35:42;;;;;;;4.30;2.50;;;;;;;;;;5027189;28;20181;-54
2022/07/15 02:38:09;;;;;;;3.33;2.23;;;;;;;;;;5027234;28;20184;-54
2022/07/15 02:40:35;;;;;;;3.47;2.57;;;;;;;;;;5026795;28;20182;-55
2022/07/15 02:43:02;;;;;;;2.40;2.20;;;;;;;;;;5027075;28;20265;-55
2022/07/15 02:45:29;;;;;;;2.73;2.23;;;;;;;;;;5027849;28;20163;-54
2022/07/15 02:47:55;;;;;;;4.53;2.20;;;;;;;;;;5019657;28;20189;-55
2022/07/15 02:50:22;;;;;;;2.93;2.17;;;;;;;;;;5026324;28;20576;-55
2022/07/15 02:52:48;;;;;;;3.20;2.30;;;;;;;;;;5027369;28;20210;-55
2022/07/15 02:55:15;;;;;;;5.30;2.73;;;;;;;;;;5044219;28;20654;-55
2022/07/15 02:57:41;;;;;;;3.57;2.50;;;;;;;;;;5023838;28;20182;-54
2022/07/15 03:00:11;;;;;;;3.63;2.30;;;;;;;;;;5026653;28;20612;-55
2022/07/15 03:02:37;;;;;;;5.27;2.50;;;;;;;;;;5027247;28;20182;-54
2022/07/15 03:05:03;;;;;;;4.20;2.77;;;;;;;;;;5026415;28;20232;-54
2022/07/15 03:07:29;;;;;;;3.23;2.57;;;;;;;;;;5026501;28;20181;-54
2022/07/15 03:09:55;;;;;;;2.93;2.63;;;;;;;;;;5025611;28;20186;-55
2022/07/15 03:12:22;;;;;;;3.00;2.73;;;;;;;;;;4996100;28;20696;-55
2022/07/15 03:14:48;;;;;;;2.77;2.47;;;;;;;;;;5008181;28;20164;-54
2022/07/15 03:17:14;;;;;;;4.70;4.27;;;;;;;;;;5024827;28;20210;-54
2022/07/15 03:19:43;;;;;;;3.00;2.80;;;;;;;;;;5026334;28;20684;-54
2022/07/15 03:22:09;;;;;;;2.77;2.57;;;;;;;;;;5026818;28;20189;-54
2022/07/15 03:24:35;;;;;;;2.87;2.40;;;;;;;;;;5027078;28;20162;-53
2022/07/15 03:27:01;;;;;;;4.53;2.65;;;;;;;;;;5015438;28;20940;-56
2022/07/15 03:29:34;;;;;;;4.23;3.30;;;;;;;;;;5014282;28;20722;-53
2022/07/15 03:32:00;;;;;;;4.27;3.97;;;;;;;;;;4986319;28;20296;-54
2022/07/15 03:34:26;;;;;;;3.03;2.70;;;;;;;;;;4988031;28;20177;-55
2022/07/15 03:36:53;;;;;;;3.47;3.00;;;;;;;;;;4995408;28;20656;-54
2022/07/15 03:39:19;;;;;;;3.03;2.50;;;;;;;;;;4991483;28;20172;-54
2022/07/15 03:41:46;;;;;;;2.80;2.27;;;;;;;;;;4984384;28;20273;-55
2022/07/15 03:44:13;;;;;;;3.13;2.50;;;;;;;;;;4983028;28;20283;-54
2022/07/15 03:46:39;;;;;;;2.40;2.00;;;;;;;;;;5003143;28;20190;-54
2022/07/15 03:49:11;;;;;;;5.43;2.50;;;;;;;;;;4984131;28;20266;-54
2022/07/15 03:51:37;;;;;;;3.77;2.30;;;;;;;;;;5007454;28;20680;-54
2022/07/15 03:54:03;;;;;;;2.87;2.23;;;;;;;;;;5010943;28;20669;-54
2022/07/15 03:56:30;;;;;;;3.80;2.53;;;;;;;;;;5003949;28;20642;-54
2022/07/15 03:58:57;;;;;;;2.90;2.60;;;;;;;;;;4991811;28;20167;-55
2022/07/15 04:01:23;;;;;;;5.13;4.50;;;;;;;;;;5005810;28;20191;-55
2022/07/15 04:03:50;;;;;;;2.30;1.77;;;;;;;;;;5010890;28;20167;-54
2022/07/15 04:06:17;;;;;;;2.83;2.23;;;;;;;;;;5006263;28;20182;-55
2022/07/15 04:08:49;;;;;;;3.60;2.20;;;;;;;;;;5016890;28;20179;-53
2022/07/15 04:11:15;;;;;;;2.73;2.43;;;;;;;;;;5010408;28;20297;-54
2022/07/15 04:13:41;;;;;;;2.93;2.20;;;;;;;;;;5010754;28;20836;-55
2022/07/15 04:16:09;;;;;;;2.37;1.93;;;;;;;;;;5006179;28;20263;-53
2022/07/15 04:18:35;;;;;;;2.67;2.40;;;;;;;;;;4996519;28;20179;-54
2022/07/15 04:21:02;;;;;;;3.53;3.07;;;;;;;;;;5007198;28;20206;-54
2022/07/15 04:23:28;;;;;;;3.13;2.20;;;;;;;;;;4990394;28;20192;-54
2022/07/15 04:25:54;;;;;;;2.67;2.47;;;;;;;;;;4996572;28;20182;-55
2022/07/15 04:28:21;;;;;;;4.70;2.43;;;;;;;;;;4992410;28;20660;-54
2022/07/15 04:30:47;;;;;;;3.23;2.10;;;;;;;;;;4995882;28;20310;-55
2022/07/15 04:33:13;;;;;;;4.47;3.77;;;;;;;;;;4990818;28;20167;-54
2022/07/15 04:35:39;;;;;;;3.10;2.30;;;;;;;;;;4996019;28;20641;-55
2022/07/15 04:38:06;;;;;;;2.87;2.57;;;;;;;;;;5009427;28;20690;-55
2022/07/15 04:40:32;;;;;;;5.30;2.40;;;;;;;;;;5010577;28;20167;-57
2022/07/15 04:42:58;;;;;;;4.03;2.57;;;;;;;;;;5010102;28;20672;-55
2022/07/15 04:45:25;;;;;;;3.40;1.77;;;;;;;;;;5009347;28;20186;-55
2022/07/15 04:47:51;;;;;;;2.73;2.47;;;;;;;;;;5000138;28;20174;-54
2022/07/15 04:53:02;;;;;;;3.70;2.33;;;;;;;;;;4999288;28;20213;-55
2022/07/15 04:55:28;;;;;;;2.60;2.30;;;;;;;;;;5008716;28;20539;-55
2022/07/15 04:57:54;;;;;;;2.73;2.37;;;;;;;;;;4974677;28;20240;-55
2022/07/15 05:00:20;;;;;;;3.87;3.37;;;;;;;;;;4991470;28;20183;-54
2022/07/15 05:02:46;;;;;;;2.43;2.10;;;;;;;;;;5002208;28;20221;-56
2022/07/15 05:05:12;;;;;;;4.30;2.60;;;;;;;;;;4991901;28;20194;-55
2022/07/15 05:07:39;;;;;;;3.27;2.10;;;;;;;;;;4993937;28;20206;-54
2022/07/15 05:10:06;;;;;;;2.83;2.53;;;;;;;;;;4987661;28;20221;-55
2022/07/15 05:12:32;;;;;;;3.17;2.77;;;;;;;;;;4990898;28;20203;-54
2022/07/15 05:14:58;;;;;;;5.37;2.77;;;;;;;;;;5001406;28;20211;-55
2022/07/15 05:17:25;;;;;;;4.73;2.30;;;;;;;;;;4994971;28;20183;-56
2022/07/15 05:19:52;;;;;;;4.57;2.37;;;;;;;;;;5006120;28;20618;-54
2022/07/15 05:22:18;;;;;;;3.53;2.23;;;;;;;;;;5004843;28;20186;-54
2022/07/15 05:24:45;;;;;;;2.70;2.50;;;;;;;;;;4986239;28;20221;-56
2022/07/15 05:27:11;;;;;;;2.83;2.10;;;;;;;;;;5015435;28;20179;-57
2022/07/15 05:29:37;;;;;;;2.17;1.93;;;;;;;;;;5020826;28;20229;-54
2022/07/15 05:32:03;;;;;;;4.93;2.60;;;;;;;;;;5041548;28;20664;-57
2022/07/15 05:34:30;;;;;;;6.00;2.87;;;;;;;;;;5028365;28;20460;-55
2022/07/15 05:36:59;;;;;;;4.10;2.67;;;;;;;;;;5027032;28;20178;-55
2022/07/15 05:39:25;;;;;;;3.60;2.90;;;;;;;;;;4994862;28;20179;-55
2022/07/15 05:41:52;;;;;;;4.10;2.97;;;;;;;;;;5009742;28;20181;-54
2022/07/15 05:44:18;;;;;;;3.73;2.93;;;;;;;;;;5009556;28;20677;-56
2022/07/15 05:46:44;;;;;;;4.17;2.63;;;;;;;;;;5009205;28;20288;-54
2022/07/15 05:49:10;;;;;;;3.13;2.70;;;;;;;;;;5027990;28;20183;-55
2022/07/15 05:51:36;;;;;;;7.07;3.10;;;;;;;;;;5010634;28;20201;-55
2022/07/15 05:54:03;;;;;;;4.63;2.43;;;;;;;;;;5028300;28;20639;-54
2022/07/15 05:56:29;;;;;;;4.30;2.80;;;;;;;;;;5028002;28;20201;-55
2022/07/15 05:58:55;;;;;;;3.88;2.60;;;;;;;;;;5022531;28;20433;-55
2022/07/15 06:01:23;;;;;;;3.70;2.80;;;;;;;;;;5021436;28;20189;-56
2022/07/15 06:03:49;;;;;;;3.07;2.30;;;;;;;;;;5025318;28;20180;-54
2022/07/15 06:06:16;;;;;;;3.60;2.33;;;;;;;;;;5025041;28;20233;-55
2022/07/15 06:08:48;;;;;;;4.90;2.80;;;;;;;;;;5025278;28;20431;-54
2022/07/15 06:11:14;;;;;;;3.37;2.33;;;;;;;;;;5004548;28;20214;-54
2022/07/15 06:13:40;;;;;;;5.77;2.80;;;;;;;;;;5009927;28;20176;-55
2022/07/15 06:16:07;;;;;;;7.40;4.18;;;;;;;;;;5021966;28;20423;-54
2022/07/15 06:18:33;;;;;;;10.70;3.97;;;;;;;;;;5021658;28;20531;-56
2022/07/15 06:20:59;;;;;;;11.97;4.10;;;;;;;;;;5012383;28;20300;-55
2022/07/15 06:23:25;;;;;;;8.87;4.13;;;;;;;;;;5010559;28;20174;-54
2022/07/15 06:25:52;;;;;;;10.23;4.40;;;;;;;;;;5015579;28;20222;-53
2022/07/15 06:28:18;;;;;;;8.00;4.50;;;;;;;;;;5006788;28;20254;-53
2022/07/15 06:30:44;;;;;;;8.77;5.17;;;;;;;;;;4988800;28;20222;-54
2022/07/15 06:33:10;;;;;;;8.73;4.70;;;;;;;;;;4989092;28;20217;-54
2022/07/15 06:35:36;;;;;;;7.93;4.20;;;;;;;;;;5001904;28;20302;-54
2022/07/15 06:38:02;;;;;;;7.43;4.00;;;;;;;;;;5006227;28;20171;-54
2022/07/15 06:40:28;;;;;;;7.53;3.40;;;;;;;;;;5006146;28;20233;-53
2022/07/15 06:42:54;;;;;;;7.23;3.87;;;;;;;;;;4999636;28;20191;-54
2022/07/15 06:45:20;;;;;;;9.03;4.10;;;;;;;;;;5005496;28;20170;-53
2022/07/15 06:47:47;;;;;;;7.57;3.80;;;;;;;;;;4991475;28;20258;-54
2022/07/15 06:50:14;;;;;;;5.43;3.37;;;;;;;;;;4983762;28;20179;-56
2022/07/15 06:52:40;;;;;;;6.27;2.97;;;;;;;;;;4989873;28;20289;-54
2022/07/15 06:55:06;;;;;;;5.83;3.00;;;;;;;;;;5005654;28;20186;-54
2022/07/15 06:57:32;;;;;;;5.50;2.83;;;;;;;;;;4959679;28;20179;-54
2022/07/15 06:59:59;;;;;;;5.87;3.40;;;;;;;;;;4995532;28;20167;-53
2022/07/15 07:02:25;;;;;;;4.37;2.70;;;;;;;;;;4990102;28;20190;-55
2022/07/15 07:04:51;;;;;;;3.00;1.83;;;;;;;;;;5005212;28;20177;-55
2022/07/15 07:07:18;;;;;;;6.67;3.00;;;;;;;;;;5006483;28;20249;-55
2022/07/15 07:09:44;;;;;;;4.20;2.27;;;;;;;;;;4992262;28;20338;-58
2022/07/15 07:12:10;;;;;;;5.23;2.60;;;;;;;;;;4995996;28;20199;-56
2022/07/15 07:14:37;;;;;;;4.50;2.30;;;;;;;;;;5001662;28;20605;-56
2022/07/15 07:17:03;;;;;;;3.43;1.73;;;;;;;;;;4978814;28;20179;-55
2022/07/15 07:19:30;;;;;;;4.93;1.90;;;;;;;;;;5002706;28;20289;-57
2022/07/15 07:21:57;;;;;;;6.50;2.50;;;;;;;;;;4986302;28;20194;-56
2022/07/15 07:24:23;;;;;;;4.13;2.37;;;;;;;;;;4988712;28;20205;-55
2022/07/15 07:26:49;;;;;;;7.03;2.20;;;;;;;;;;4997759;28;20516;-55
2022/07/15 07:29:22;;;;;;;7.07;2.30;;;;;;;;;;5000039;28;20333;-57
2022/07/15 07:31:48;;;;;;;3.97;2.27;;;;;;;;;;5017861;28;20298;-56
2022/07/15 07:34:15;;;;;;;4.83;2.63;;;;;;;;;;5003142;28;20177;-56
2022/07/15 07:36:41;;;;;;;8.20;3.70;;;;;;;;;;5026009;28;20699;-57
2022/07/15 07:39:08;;;;;;;6.97;3.10;;;;;;;;;;5026531;28;20177;-55
2022/07/15 07:41:34;;;;;;;4.30;2.60;;;;;;;;;;5008382;28;20196;-56
2022/07/15 07:44:00;;;;;;;5.20;2.83;;;;;;;;;;5026763;28;20189;-56
2022/07/15 07:46:27;;;;;;;7.07;2.90;;;;;;;;;;5020341;28;20197;-56
2022/07/15 07:48:59;;;;;;;6.10;2.90;;;;;;;;;;5023594;28;20782;-55
2022/07/15 07:51:26;;;;;;;7.23;2.73;;;;;;;;;;5008315;28;20209;-56
2022/07/15 07:53:52;;;;;;;5.00;2.80;;;;;;;;;;5007929;28;20201;-55
2022/07/15 07:56:18;;;;;;;9.50;2.60;;;;;;;;;;5020306;28;20537;-57
2022/07/15 07:58:45;;;;;;;4.73;2.47;;;;;;;;;;5023263;28;20664;-55
2022/07/15 08:01:11;;;;;;;5.73;2.47;;;;;;;;;;5005446;28;20182;-56
2022/07/15 08:03:38;;;;;;;6.10;3.10;;;;;;;;;;5019281;28;20221;-56
2022/07/15 08:06:04;;;;;;;7.53;3.00;;;;;;;;;;5005708;28;20181;-56
2022/07/15 08:08:30;;;;;;;3.90;2.00;;;;;;;;;;5019031;28;20224;-56
2022/07/15 08:10:58;;;;;;;3.40;2.07;;;;;;;;;;5024383;28;20174;-57
2022/07/15 08:13:25;;;;;;;4.07;2.63;;;;;;;;;;4998286;28;20748;-57
2022/07/15 08:15:53;;;;;;;4.27;1.93;;;;;;;;;;4990637;28;20178;-56
2022/07/15 08:18:20;;;;;;;3.47;2.20;;;;;;;;;;5018594;28;20178;-53
2022/07/15 08:20:46;;;;;;;3.43;2.87;;;;;;;;;;5008353;28;20201;-55
2022/07/15 08:23:19;;;;;;;2.47;1.97;;;;;;;;;;5002203;28;20178;-54
2022/07/15 08:25:45;;;;;;;3.13;1.63;;;;;;;;;;5009444;28;20735;-54
2022/07/15 08:28:12;;;;;;;3.23;2.07;;;;;;;;;;5009427;28;20191;-54
2022/07/15 08:30:38;;;;;;;4.33;2.20;;;;;;;;;;5027517;28;20242;-53
2022/07/15 08:33:04;;;;;;;3.07;1.60;;;;;;;;;;4999135;28;20298;-57
2022/07/15 08:35:34;;;;;;;5.67;2.30;;;;;;;;;;5027478;28;20176;-54
2022/07/15 08:38:05;;;;;;;3.87;2.40;;;;;;;;;;5028297;28;20220;-54
2022/07/15 08:40:31;;;;;;;3.53;1.70;;;;;;;;;;5009753;28;20179;-54
2022/07/15 08:42:58;;;;;;;2.40;1.73;;;;;;;;;;5028636;28;20214;-54
2022/07/15 08:45:24;;;;;;;3.17;2.00;;;;;;;;;;5028723;28;20165;-55
2022/07/15 08:47:52;;;;;;;2.37;1.80;;;;;;;;;;5011239;28;20551;-54
2022/07/15 08:50:22;;;;;;;3.87;2.43;;;;;;;;;;5029115;28;20256;-54
2022/07/15 08:52:48;;;;;;;4.53;1.73;;;;;;;;;;5008806;28;20211;-54
2022/07/15 08:55:18;;;;;;;3.23;2.07;;;;;;;;;;5028683;28;20624;-53
2022/07/15 08:57:52;;;;;;;5.37;1.90;;;;;;;;;;4994900;28;20662;-54
2022/07/15 09:00:19;;;;;;;3.97;1.83;;;;;;;;;;5010148;28;20176;-57
2022/07/15 09:02:46;;;;;;;4.93;1.70;;;;;;;;;;5010715;28;20180;-54
2022/07/15 09:05:21;;;;;;;3.33;1.90;;;;;;;;;;5030415;28;20256;-54
2022/07/15 09:07:59;;;;;;;2.70;2.20;;;;;;;;;;4994390;28;20198;-56
2022/07/15 09:10:45;;;;;;;6.03;2.63;;;;;;;;;;5009833;28;20198;-53
2022/07/15 09:13:12;;;;;;;2.23;1.33;;;;;;;;;;4992024;28;20257;-55
2022/07/15 09:15:40;;;;;;;3.13;1.77;;;;;;;;;;5010587;28;20151;-54
2022/07/15 09:18:12;;;;;;;2.77;1.50;;;;;;;;;;5010926;28;20629;-55
2022/07/15 09:20:39;;;;;;;5.53;2.07;;;;;;;;;;4994030;28;20741;-55
2022/07/15 09:23:05;;;;;;;4.93;1.90;;;;;;;;;;5010854;28;20209;-55
2022/07/15 09:25:35;;;;;;;3.83;2.03;;;;;;;;;;5028267;28;20453;-56
2022/07/15 09:28:02;;;;;;;4.90;2.17;;;;;;;;;;5027651;28;20179;-55
2022/07/15 09:33:38;;;;;;;3.03;1.70;;;;;;;;;;5044053;28;20432;-56
2022/07/15 09:36:15;;;;;;;4.60;2.13;;;;;;;;;;5038951;28;20723;-55
2022/07/15 09:38:41;;;;;;;2.73;1.57;;;;;;;;;;5028509;28;20640;-54
2022/07/15 09:41:21;;;;;;;5.87;2.13;;;;;;;;;;5023710;28;20181;-55
2022/07/15 09:43:51;;;;;;;4.13;1.83;;;;;;;;;;5009828;28;20647;-57
2022/07/15 09:46:19;;;;;;;5.67;1.83;;;;;;;;;;4996927;28;20684;-57
2022/07/15 09:48:47;;;;;;;3.60;2.27;;;;;;;;;;5028534;28;20174;-55
2022/07/15 09:51:14;;;;;;;4.30;2.20;;;;;;;;;;5019088;28;20182;-56
2022/07/15 09:53:41;;;;;;;4.20;1.83;;;;;;;;;;5008224;28;20175;-55
2022/07/15 09:56:08;;;;;;;3.70;2.00;;;;;;;;;;5011288;28;20217;-55
2022/07/15 09:58:37;;;;;;;3.60;1.80;;;;;;;;;;5028718;28;20174;-56
2022/07/15 10:01:03;;;;;;;5.43;3.10;;;;;;;;;;5009088;28;20718;-56
2022/07/15 10:03:30;;;;;;;1.77;1.60;;;;;;;;;;5028977;28;20246;-54
2022/07/15 10:05:57;;;;;;;3.27;2.00;;;;;;;;;;5026491;28;20260;-56
2022/07/15 10:08:24;;;;;;;4.23;2.43;;;;;;;;;;5026700;28;20547;-57
2022/07/15 10:10:51;;;;;;;3.73;1.60;;;;;;;;;;5023772;28;20175;-54
2022/07/15 10:13:30;;;;;;;5.37;1.90;;;;;;;;;;5000958;28;20629;-55
2022/07/15 10:16:00;;;;;;;3.10;2.00;;;;;;;;;;5025105;28;20181;-54
2022/07/15 10:18:45;;;;;;;3.30;1.60;;;;;;;;;;5021982;28;20187;-54
2022/07/15 10:21:11;;;;;;;7.33;2.47;;;;;;;;;;5026246;28;20630;-54
2022/07/15 10:23:50;;;;;;;2.63;1.93;;;;;;;;;;5009169;28;20871;-54
2022/07/15 10:26:34;;;;;;;3.00;1.60;;;;;;;;;;5017155;28;20253;-55
2022/07/15 10:29:05;;;;;;;8.27;2.90;;;;;;;;;;5027077;28;20233;-56
2022/07/15 10:31:32;;;;;;;3.27;1.80;;;;;;;;;;5026110;28;20207;-54
2022/07/15 10:34:04;;;;;;;4.57;1.80;;;;;;;;;;5026703;28;20282;-55
2022/07/15 10:36:54;;;;;;;2.50;1.60;;;;;;;;;;5027063;28;20544;-54
2022/07/15 10:39:22;;;;;;;3.97;2.20;;;;;;;;;;5027089;28;20190;-55
2022/07/15 10:41:59;;;;;;;2.23;1.90;;;;;;;;;;5007876;28;20222;-56
2022/07/15 10:44:27;;;;;;;2.57;1.90;;;;;;;;;;5025308;28;20250;-55
2022/07/15 10:47:12;;;;;;;4.90;1.90;;;;;;;;;;5004358;28;20737;-54
2022/07/15 10:49:38;;;;;;;3.47;1.73;;;;;;;;;;5023803;28;20232;-55
2022/07/15 10:52:17;;;;;;;2.67;1.60;;;;;;;;;;5016087;28;20357;-55
2022/07/15 10:54:48;;;;;;;3.53;1.80;;;;;;;;;;5005359;28;20178;-54
2022/07/15 10:57:16;;;;;;;3.23;2.00;;;;;;;;;;5008332;28;20182;-55
2022/07/15 10:59:54;;;;;;;4.03;2.23;;;;;;;;;;5027573;28;20174;-54
2022/07/15 11:02:21;;;;;;;2.20;1.70;;;;;;;;;;5007930;28;20223;-54
2022/07/15 11:04:48;;;;;;;3.80;1.83;;;;;;;;;;5027154;28;20193;-56
2022/07/15 11:07:14;;;;;;;3.03;1.70;;;;;;;;;;4998569;28;20652;-54
2022/07/15 11:09:52;;;;;;;2.97;1.67;;;;;;;;;;5026638;28;20154;-54
2022/07/15 11:12:18;;;;;;;3.08;1.90;;;;;;;;;;5025453;28;20453;-55
2022/07/15 11:14:46;;;;;;;3.97;1.90;;;;;;;;;;5025463;28;20182;-55
2022/07/15 11:17:13;;;;;;;2.67;2.13;;;;;;;;;;4998490;28;20719;-54
2022/07/15 11:19:42;;;;;;;2.87;2.00;;;;;;;;;;5008742;28;20692;-56
2022/07/15 11:22:09;;;;;;;3.23;1.70;;;;;;;;;;5015595;28;20174;-54
2022/07/15 11:24:35;;;;;;;2.07;1.63;;;;;;;;;;4990120;28;20677;-54
2022/07/15 11:27:02;;;;;;;2.57;1.87;;;;;;;;;;4975938;28;20206;-54
2022/07/15 11:29:48;;;;;;;1.93;1.83;;;;;;;;;;5009968;28;20233;-53
2022/07/15 11:32:15;;;;;;;2.53;1.70;;;;;;;;;;5025935;28;20522;-55
2022/07/15 11:34:46;;;;;;;2.10;1.70;;;;;;;;;;5024976;28;20178;-53
2022/07/15 11:37:18;;;;;;;1.60;1.50;;;;;;;;;;4997574;28;20221;-53
2022/07/15 11:39:45;;;;;;;2.23;1.60;;;;;;;;;;5026272;28;20999;-53
2022/07/15 11:45:02;;;;;;;1.87;1.60;;;;;;;;;;5018674;28;20659;-53
2022/07/15 11:47:29;;;;;;;1.80;1.60;;;;;;;;;;5019837;28;20170;-57
2022/07/15 11:50:06;;;;;;;4.10;1.80;;;;;;;;;;5021427;28;20609;-54
2022/07/15 11:52:32;;;;;;;1.93;1.77;;;;;;;;;;5024830;28;20201;-53
2022/07/15 11:54:58;;;;;;;1.93;1.57;;;;;;;;;;5007287;28;20270;-52
2022/07/15 11:57:25;;;;;;;2.23;2.13;;;;;;;;;;5005975;28;20228;-55
2022/07/15 11:59:52;;;;;;;4.13;3.73;;;;;;;;;;5019607;28;20637;-55
2022/07/15 12:02:18;;;;;;;3.97;3.70;;;;;;;;;;5027115;28;20252;-54
2022/07/15 12:04:45;;;;;;;2.50;1.87;;;;;;;;;;5010151;28;20178;-56
2022/07/15 12:07:11;;;;;;;2.00;1.60;;;;;;;;;;5018669;28;20544;-52
2022/07/15 12:09:44;;;;;;;4.17;1.70;;;;;;;;;;5003866;28;20180;-51
2022/07/15 12:12:10;;;;;;;4.57;1.60;;;;;;;;;;5000342;28;20212;-53
2022/07/15 12:14:37;;;;;;;3.37;1.63;;;;;;;;;;5034281;28;20170;-53
2022/07/15 12:17:04;;;;;;;3.17;1.70;;;;;;;;;;5033496;28;20166;-56
2022/07/15 12:19:31;;;;;;;3.37;1.73;;;;;;;;;;5014264;28;20197;-57
2022/07/15 12:21:58;;;;;;;5.00;2.00;;;;;;;;;;5019815;28;20183;-57
2022/07/15 12:24:26;;;;;;;2.13;1.43;;;;;;;;;;5010725;28;20640;-55
2022/07/15 12:26:54;;;;;;;3.10;1.87;;;;;;;;;;5025776;28;20174;-53
2022/07/15 12:29:39;;;;;;;2.33;1.27;;;;;;;;;;5030173;28;20300;-54
2022/07/15 12:32:06;;;;;;;1.70;1.60;;;;;;;;;;5027555;28;20202;-53
2022/07/15 12:34:47;;;;;;;2.30;2.10;;;;;;;;;;5050080;28;20662;-52
2022/07/15 12:37:34;;;;;;;1.50;1.40;;;;;;;;;;5027286;28;20171;-53
2022/07/15 12:40:01;;;;;;;1.50;1.40;;;;;;;;;;4996883;28;20255;-54
2022/07/15 12:42:30;;;;;;;3.90;1.87;;;;;;;;;;5008370;28;20178;-53
2022/07/15 12:45:10;;;;;;;2.97;1.60;;;;;;;;;;5027801;28;20186;-55
2022/07/15 12:47:37;;;;;;;3.03;1.60;;;;;;;;;;5024413;28;20182;-54
2022/07/15 12:50:04;;;;;;;2.63;1.70;;;;;;;;;;4999167;28;20648;-55
2022/07/15 12:52:38;;;;;;;2.43;1.70;;;;;;;;;;5011025;28;20297;-54
2022/07/15 12:55:24;;;;;;;3.03;1.50;;;;;;;;;;5028504;28;20166;-55
2022/07/15 12:57:51;;;;;;;1.60;1.50;;;;;;;;;;4993090;28;20174;-56
2022/07/15 13:00:27;;;;;;;1.93;1.40;;;;;;;;;;5012002;28;20529;-54
2022/07/15 13:03:12;;;;;;;1.90;1.60;;;;;;;;;;4999092;28;20483;-54
2022/07/15 13:05:39;;;;;;;2.60;1.90;;;;;;;;;;5028887;28;20182;-56
2022/07/15 13:08:11;;;;;;;1.90;1.63;;;;;;;;;;5015380;28;20673;-54
2022/07/15 13:10:38;;;;;;;2.30;1.27;;;;;;;;;;5009827;28;20710;-55
2022/07/15 13:13:05;;;;;;;1.90;1.60;;;;;;;;;;5002370;28;20479;-56
2022/07/15 13:15:32;;;;;;;1.70;1.60;;;;;;;;;;5026169;28;20174;-56
2022/07/15 13:17:58;;;;;;;2.97;1.60;;;;;;;;;;5020511;28;20534;-54
2022/07/15 13:20:25;;;;;;;2.13;1.90;;;;;;;;;;5026314;28;20684;-56
2022/07/15 13:22:52;;;;;;;1.67;1.43;;;;;;;;;;5020438;28;20217;-54
2022/07/15 13:25:18;;;;;;;2.50;1.80;;;;;;;;;;5008420;28;20174;-55
2022/07/15 13:27:45;;;;;;;1.93;1.60;;;;;;;;;;5020054;28;20178;-54
2022/07/15 13:30:12;;;;;;;2.50;1.90;;;;;;;;;;5009362;28;20228;-55
2022/07/15 13:32:38;;;;;;;1.50;1.40;;;;;;;;;;5023710;28;20198;-56
2022/07/15 13:35:05;;;;;;;3.00;1.43;;;;;;;;;;5025701;28;20182;-54
2022/07/15 13:37:31;;;;;;;1.60;1.50;;;;;;;;;;5016521;28;20186;-56
2022/07/15 13:39:58;;;;;;;3.43;1.70;;;;;;;;;;5027806;28;20548;-54
2022/07/15 13:42:28;;;;;;;2.03;1.73;;;;;;;;;;4997498;28;20358;-54
2022/07/15 13:44:55;;;;;;;2.00;1.80;;;;;;;;;;5000959;28;20262;-55
2022/07/15 13:47:31;;;;;;;3.57;1.70;;;;;;;;;;5025589;28;20648;-55
2022/07/15 13:52:46;;;;;;;3.00;1.90;;;;;;;;;;5011433;28;20256;-55
2022/07/15 13:55:12;;;;;;;2.93;2.10;;;;;;;;;;5023785;28;20182;-54
2022/07/15 13:57:39;;;;;;;3.03;2.80;;;;;;;;;;5019591;28;20177;-55
2022/07/15 14:00:07;;;;;;;3.73;2.40;;;;;;;;;;5026915;28;20663;-54
2022/07/15 14:02:34;;;;;;;2.17;1.67;;;;;;;;;;5019911;28;20575;-54
2022/07/15 14:05:00;;;;;;;2.07;1.97;;;;;;;;;;5011646;28;20543;-55
2022/07/15 14:07:29;;;;;;;1.87;1.70;;;;;;;;;;5018979;28;20224;-54
2022/07/15 14:09:55;;;;;;;2.30;1.70;;;;;;;;;;5018986;28;20170;-54
2022/07/15 14:12:21;;;;;;;3.30;2.00;;;;;;;;;;5014803;28;20209;-54
2022/07/15 14:14:47;;;;;;;2.07;1.87;;;;;;;;;;5024303;28;20283;-56
2022/07/15 14:17:13;;;;;;;2.03;1.60;;;;;;;;;;5021039;28;20208;-54
2022/07/15 14:19:39;;;;;;;2.43;1.87;;;;;;;;;;5025557;28;20197;-54
2022/07/15 14:22:06;;;;;;;2.33;1.87;;;;;;;;;;5005981;28;20170;-56
2022/07/15 14:24:32;;;;;;;1.73;1.63;;;;;;;;;;5022566;28;20183;-56
2022/07/15 14:26:58;;;;;;;2.77;1.97;;;;;;;;;;5021506;28;20177;-54
2022/07/15 14:29:25;;;;;;;3.30;1.77;;;;;;;;;;5018749;28;20286;-54
2022/07/15 14:31:51;;;;;;;2.87;2.10;;;;;;;;;;5007618;28;20198;-54
2022/07/15 14:34:17;;;;;;;5.47;1.40;;;;;;;;;;5019460;28;20607;-55
2022/07/15 14:36:44;;;;;;;1.70;1.60;;;;;;;;;;5021506;28;20552;-55
2022/07/15 14:39:17;;;;;;;2.97;2.27;;;;;;;;;;5020833;28;20184;-54
2022/07/15 14:41:43;;;;;;;2.33;1.63;;;;;;;;;;5004273;28;20182;-54
2022/07/15 14:44:09;;;;;;;2.17;1.77;;;;;;;;;;5024098;28;20739;-54
2022/07/15 14:46:35;;;;;;;1.73;1.63;;;;;;;;;;5021733;28;20254;-54
2022/07/15 14:49:02;;;;;;;2.30;1.80;;;;;;;;;;5037301;28;20235;-53
2022/07/15 14:51:28;;;;;;;2.87;1.90;;;;;;;;;;5006565;28;20597;-55
2022/07/15 14:53:54;;;;;;;3.27;2.30;;;;;;;;;;5021142;28;20260;-54
2022/07/15 14:56:20;;;;;;;3.87;2.07;;;;;;;;;;5018633;28;20174;-53
2022/07/15 14:58:47;;;;;;;1.83;1.63;;;;;;;;;;5006064;28;20601;-54
2022/07/15 15:01:13;;;;;;;2.00;1.80;;;;;;;;;;5003186;28;20529;-55